Time;durP1;ratioP1;P1;durP2;ratioP2;P2;SDS_P1;SDS_P2;PMS_P1;PMS_P2;Temp;Humidity;BMP_temperature;BMP_pressure;BME280_temperature;BME280_humidity;BME280_pressure;Samples;Min_cycle;Max_cycle;Signal;HPM_P1;HPM_P2
2021/03/25 00:00:25;;;;;;;;;;;;;;;-3.87;61.53;96047.31;1716011;84;20161;-66
2021/03/25 00:02:57;;;;;;;;;;;;;;;-3.83;61.49;96054.34;1715984;84;20248;-66
2021/03/25 00:05:28;;;;;;;;;;;;;;;-3.99;62.47;96049.81;1716039;84;20124;-66
2021/03/25 00:07:55;;;;;;;;;;;;;;;-3.91;61.31;96048.86;1716306;84;20136;-66
2021/03/25 00:10:32;;;;;;;;;;;;;;;-3.84;60.90;96053.47;1717108;84;20169;-66
2021/03/25 00:13:00;;;;;;;;;;;;;;;-3.75;60.68;96055.17;1718811;84;20180;-66
2021/03/25 00:15:29;;;;;;;;;;;;;;;-3.89;60.07;96061.83;1719068;84;20136;-66
2021/03/25 00:17:56;;;;;;;;;;;;;;;-4.08;60.23;96053.29;1718708;84;20144;-66
2021/03/25 00:20:24;;;;;;;;;;;;;;;-4.12;61.03;96065.96;1718883;84;20414;-66
2021/03/25 00:22:53;;;;;;;;;;;;;;;-4.14;61.18;96067.17;1718750;83;20129;-66
2021/03/25 00:25:30;;;;;;;;;;;;;;;-4.07;61.19;96070.91;1718642;84;20161;-66
2021/03/25 00:27:58;;;;;;;;;;;;;;;-4.04;60.82;96071.92;1719160;83;20157;-66
2021/03/25 00:30:29;;;;;;;;;;;;;;;-4.12;61.15;96065.55;1718684;84;20145;-66
2021/03/25 00:32:58;;;;;;;;;;;;;;;-4.15;63.05;96065.00;1718883;84;20149;-66
2021/03/25 00:35:28;;;;;;;;;;;;;;;-4.21;63.48;96067.32;1719009;83;20409;-66
2021/03/25 00:37:56;;;;;;;;;;;;;;;-4.07;62.05;96070.50;1718625;84;20152;-66
2021/03/25 00:40:25;;;;;;;;;;;;;;;-3.93;61.92;96072.42;1716342;84;20128;-66
2021/03/25 00:42:53;;;;;;;;;;;;;;;-3.86;61.20;96069.27;1718953;84;20407;-66
2021/03/25 00:45:27;;;;;;;;;;;;;;;-3.96;63.91;96063.23;1719089;84;20177;-66
2021/03/25 00:47:54;;;;;;;;;;;;;;;-4.06;65.83;96049.47;1718836;84;20426;-66
2021/03/25 00:50:29;;;;;;;;;;;;;;;-4.10;65.28;96039.45;1719124;83;20124;-66
2021/03/25 00:52:57;;;;;;;;;;;;;;;-3.93;64.38;96046.64;1718278;84;20422;-66
2021/03/25 00:55:26;;;;;;;;;;;;;;;-3.85;63.16;96055.59;1718756;84;20121;-66
2021/03/25 00:57:54;;;;;;;;;;;;;;;-3.76;62.31;96055.09;1719091;83;20125;-66
2021/03/25 01:00:28;;;;;;;;;;;;;;;-3.76;62.99;96052.52;1718612;84;20149;-66
2021/03/25 01:02:56;;;;;;;;;;;;;;;-3.90;63.76;96042.03;1718949;84;20137;-66
2021/03/25 01:05:26;;;;;;;;;;;;;;;-3.89;63.97;96046.36;1718802;84;20128;-66
2021/03/25 01:07:54;;;;;;;;;;;;;;;-3.93;62.97;96053.96;1719031;84;20402;-66
2021/03/25 01:10:45;;;;;;;;;;;;;;;-3.88;62.27;96058.04;1708619;84;20140;-66
2021/03/25 01:13:16;;;;;;;;;;;;;;;-3.92;62.06;96051.84;1693490;84;20145;-66
2021/03/25 01:15:45;;;;;;;;;;;;;;;-4.02;62.82;96057.41;1683576;85;20144;-66
2021/03/25 01:18:12;;;;;;;;;;;;;;;-4.01;62.43;96057.00;1693406;85;20137;-66
2021/03/25 01:20:43;;;;;;;;;;;;;;;-3.90;61.88;96052.34;1693362;84;20232;-66
2021/03/25 01:23:11;;;;;;;;;;;;;;;-3.90;62.54;96052.34;1693479;85;20149;-66
2021/03/25 01:25:40;;;;;;;;;;;;;;;-4.00;62.38;96056.20;1693433;84;20434;-66
2021/03/25 01:28:10;;;;;;;;;;;;;;;-3.97;62.57;96053.34;1693535;85;20145;-66
2021/03/25 01:30:39;;;;;;;;;;;;;;;-3.88;61.70;96053.27;1693488;84;20144;-66
2021/03/25 01:33:09;;;;;;;;;;;;;;;-3.80;62.24;96054.09;1693484;85;20506;-66
2021/03/25 01:35:39;;;;;;;;;;;;;;;-3.88;61.79;96050.30;1693395;84;20231;-66
2021/03/25 01:38:10;;;;;;;;;;;;;;;-3.83;61.73;96055.63;1693454;84;20251;-66
2021/03/25 01:40:44;;;;;;;;;;;;;;;-3.72;61.51;96059.58;1693354;84;20125;-66
2021/03/25 01:43:17;;;;;;;;;;;;;;;-3.87;62.55;96067.52;1693484;84;20502;-66
2021/03/25 01:46:01;;;;;;;;;;;;;;;-4.04;61.94;96069.75;1693587;84;20251;-66
2021/03/25 01:48:32;;;;;;;;;;;;;;;-4.06;62.51;96064.94;1693498;85;20521;-66
2021/03/25 01:51:04;;;;;;;;;;;;;;;-3.93;62.31;96071.13;1693621;84;20546;-66
2021/03/25 01:53:38;;;;;;;;;;;;;;;-3.79;62.02;96066.16;1693338;84;20232;-66
2021/03/25 01:56:24;;;;;;;;;;;;;;;-3.71;61.81;96063.91;1693286;84;20233;-66
2021/03/25 01:58:59;;;;;;;;;;;;;;;-3.71;61.55;96069.06;1693557;85;20513;-66
2021/03/25 02:01:31;;;;;;;;;;;;;;;-3.60;61.21;96063.11;1693299;84;20232;-66
2021/03/25 02:04:14;;;;;;;;;;;;;;;-3.50;61.10;96069.13;1693068;84;20149;-66
2021/03/25 02:06:51;;;;;;;;;;;;;;;-3.48;60.77;96064.89;1693754;84;20149;-66
2021/03/25 02:09:30;;;;;;;;;;;;;;;-3.59;61.52;96065.73;1693411;85;20573;-66
2021/03/25 02:12:23;;;;;;;;;;;;;;;-3.89;63.92;96069.14;1714767;84;20247;-66
2021/03/25 02:15:00;;;;;;;;;;;;;;;-3.85;63.16;96062.45;1716808;83;20495;-66
2021/03/25 02:17:31;;;;;;;;;;;;;;;-3.80;63.06;96057.08;1716699;83;20426;-66
2021/03/25 02:20:41;;;;;;;;;;;;;;;-3.73;62.29;96056.12;1716813;84;20225;-66
2021/03/25 02:23:31;;;;;;;;;;;;;;;-3.61;62.35;96050.59;1716669;83;20168;-66
2021/03/25 02:26:05;;;;;;;;;;;;;;;-3.70;62.96;96052.80;1716350;84;20145;-66
2021/03/25 02:29:12;;;;;;;;;;;;;;;-3.75;63.08;96055.59;1716328;84;20149;-66
2021/03/25 02:31:42;;;;;;;;;;;;;;;-3.75;63.00;96056.88;1716501;84;20370;-66
2021/03/25 02:34:22;;;;;;;;;;;;;;;-3.77;62.28;96055.51;1716015;84;20267;-66
2021/03/25 02:36:54;;;;;;;;;;;;;;;-3.79;63.38;96049.81;1716680;83;20251;-66
2021/03/25 02:39:30;;;;;;;;;;;;;;;-3.95;64.34;96048.27;1716709;84;20137;-66
2021/03/25 02:42:01;;;;;;;;;;;;;;;-3.92;62.36;96055.71;1714630;84;20145;-66
2021/03/25 02:44:32;;;;;;;;;;;;;;;-3.82;62.47;96045.40;1716389;84;20493;-66
2021/03/25 02:47:08;;;;;;;;;;;;;;;-3.85;62.62;96043.98;1716804;83;20144;-66
2021/03/25 02:49:47;;;;;;;;;;;;;;;-4.01;63.41;96047.98;1716613;84;20136;-66
2021/03/25 02:52:23;;;;;;;;;;;;;;;-4.20;63.37;96056.59;1689795;84;20151;-66
2021/03/25 02:54:53;;;;;;;;;;;;;;;-4.17;63.36;96055.03;1692101;84;20446;-66
2021/03/25 02:57:34;;;;;;;;;;;;;;;-4.19;62.98;96055.77;1716570;84;20164;-66
2021/03/25 03:00:06;;;;;;;;;;;;;;;-4.09;63.16;96052.80;1716463;84;20228;-66
2021/03/25 03:02:36;;;;;;;;;;;;;;;-4.01;62.86;96042.41;1716350;83;20160;-66
2021/03/25 03:05:12;;;;;;;;;;;;;;;-4.16;63.31;96048.17;1716231;84;20252;-66
2021/03/25 03:07:47;;;;;;;;;;;;;;;-4.39;63.02;96048.42;1691237;84;20164;-67
2021/03/25 03:10:25;;;;;;;;;;;;;;;-4.39;63.67;96043.27;1712399;84;20497;-66
2021/03/25 03:12:55;;;;;;;;;;;;;;;-4.24;62.84;96049.53;1693381;84;20240;-66
2021/03/25 03:15:27;;;;;;;;;;;;;;;-4.17;62.68;96032.25;1693487;84;20165;-66
2021/03/25 03:18:07;;;;;;;;;;;;;;;-4.06;62.54;96028.85;1693662;85;20232;-66
2021/03/25 03:20:49;;;;;;;;;;;;;;;-4.07;62.37;96025.81;1693318;84;20152;-66
2021/03/25 03:23:25;;;;;;;;;;;;;;;-4.13;62.07;96034.16;1675865;85;20407;-66
2021/03/25 03:25:55;;;;;;;;;;;;;;;-4.14;62.10;96036.25;1693547;84;20136;-67
2021/03/25 03:28:26;;;;;;;;;;;;;;;-4.01;62.09;96033.39;1693471;84;20498;-66
2021/03/25 03:31:04;;;;;;;;;;;;;;;-4.11;62.30;96028.64;1693446;84;20150;-66
2021/03/25 03:33:43;;;;;;;;;;;;;;;-4.30;62.01;96026.95;1693344;84;20227;-66
2021/03/25 03:36:23;;;;;;;;;;;;;;;-4.53;65.66;96032.36;1693813;84;20129;-66
2021/03/25 03:38:54;;;;;;;;;;;;;;;-4.65;64.58;96039.10;1693345;84;20167;-66
2021/03/25 03:41:25;;;;;;;;;;;;;;;-4.50;64.00;96035.48;1692876;84;20141;-66
2021/03/25 03:43:53;;;;;;;;;;;;;;;-4.40;63.46;96035.96;1693259;84;20240;-66
2021/03/25 03:46:23;;;;;;;;;;;;;;;-4.35;62.98;96034.89;1693850;85;20125;-66
2021/03/25 03:49:04;;;;;;;;;;;;;;;-4.50;64.15;96037.64;1693414;84;20145;-66
2021/03/25 03:51:36;;;;;;;;;;;;;;;-4.50;64.53;96047.06;1693464;84;20245;-66
2021/03/25 03:54:05;;;;;;;;;;;;;;;-4.61;63.57;96044.88;1693508;84;20146;-66
2021/03/25 03:56:57;;;;;;;;;;;;;;;-4.73;63.20;96048.17;1693418;84;20165;-66
2021/03/25 03:59:40;;;;;;;;;;;;;;;-4.70;63.71;96047.02;1693511;85;20244;-66
2021/03/25 04:02:18;;;;;;;;;;;;;;;-4.72;64.99;96055.48;1693430;84;20399;-66
2021/03/25 04:04:50;;;;;;;;;;;;;;;-4.81;63.55;96041.38;1693476;85;20431;-66
2021/03/25 04:07:29;;;;;;;;;;;;;;;-4.97;63.94;96047.00;1669403;85;20140;-66
2021/03/25 04:10:08;;;;;;;;;;;;;;;-5.02;65.63;96055.78;1692521;84;20231;-66
2021/03/25 04:12:41;;;;;;;;;;;;;;;-5.14;67.91;96061.61;1715506;84;20140;-65
2021/03/25 04:15:20;;;;;;;;;;;;;;;-5.03;65.86;96059.17;1715872;84;20160;-67
2021/03/25 04:17:52;;;;;;;;;;;;;;;-4.94;65.07;96049.30;1714409;84;20157;-67
2021/03/25 04:20:46;;;;;;;;;;;;;;;-4.75;64.60;96052.77;1644736;87;20167;-66
2021/03/25 04:23:19;;;;;;;;;;;;;;;-4.67;64.22;96048.86;1643203;87;20421;-66
2021/03/25 04:25:49;;;;;;;;;;;;;;;-4.63;63.91;96049.07;1675756;84;20156;-67
2021/03/25 04:28:25;;;;;;;;;;;;;;;-4.70;63.19;96048.72;1714964;84;20413;-67
2021/03/25 04:30:54;;;;;;;;;;;;;;;-4.79;63.69;96045.28;1715746;84;20152;-67
2021/03/25 04:33:24;;;;;;;;;;;;;;;-4.90;63.12;96040.93;1715986;84;20145;-67
2021/03/25 04:35:52;;;;;;;;;;;;;;;-5.03;63.21;96038.59;1716667;84;20149;-67
2021/03/25 04:38:23;;;;;;;;;;;;;;;-5.14;64.77;96048.75;1715923;84;20125;-67
2021/03/25 04:40:56;;;;;;;;;;;;;;;-5.14;65.56;96046.17;1715986;84;20437;-67
2021/03/25 04:43:26;;;;;;;;;;;;;;;-5.12;65.83;96035.56;1713198;84;20128;-67
2021/03/25 04:45:57;;;;;;;;;;;;;;;-5.13;65.54;96032.11;1716202;84;20406;-71
2021/03/25 04:48:26;;;;;;;;;;;;;;;-5.02;64.99;96037.36;1716008;83;20157;-68
2021/03/25 04:51:09;;;;;;;;;;;;;;;-5.18;66.65;96046.86;1716172;84;20144;-68
2021/03/25 04:53:39;;;;;;;;;;;;;;;-5.20;65.78;96053.20;1715986;84;20137;-68
2021/03/25 04:56:09;;;;;;;;;;;;;;;-5.27;66.05;96044.70;1716072;84;20419;-68
2021/03/25 04:58:39;;;;;;;;;;;;;;;-5.23;65.48;96052.65;1715805;84;20155;-68
2021/03/25 05:01:10;;;;;;;;;;;;;;;-5.07;65.17;96052.98;1716459;84;20157;-68
2021/03/25 05:03:37;;;;;;;;;;;;;;;-4.95;65.02;96046.27;1716008;84;20148;-68
2021/03/25 05:06:05;;;;;;;;;;;;;;;-4.83;64.67;96054.57;1690059;84;20125;-68
2021/03/25 05:08:34;;;;;;;;;;;;;;;-4.79;64.19;96055.58;1716367;84;20166;-68
2021/03/25 05:11:17;;;;;;;;;;;;;;;-4.85;64.12;96065.19;1716555;84;20410;-68
2021/03/25 05:13:46;;;;;;;;;;;;;;;-4.78;64.74;96063.80;1715732;84;20128;-68
2021/03/25 05:16:17;;;;;;;;;;;;;;;-4.81;65.80;96052.95;1719049;84;20124;-68
2021/03/25 05:18:54;;;;;;;;;;;;;;;-4.81;65.09;96052.08;1718103;84;20411;-68
2021/03/25 05:21:28;;;;;;;;;;;;;;;-4.65;64.94;96057.54;1719071;84;20144;-68
2021/03/25 05:24:02;;;;;;;;;;;;;;;-4.77;65.41;96059.53;1718765;83;20410;-68
2021/03/25 05:26:33;;;;;;;;;;;;;;;-4.85;67.52;96063.91;1712043;84;20148;-68
2021/03/25 05:29:03;;;;;;;;;;;;;;;-4.88;67.48;96062.48;1717643;84;20192;-68
2021/03/25 05:31:32;;;;;;;;;;;;;;;-4.85;67.21;96056.19;1718794;84;20163;-68
2021/03/25 05:34:03;;;;;;;;;;;;;;;-4.83;66.93;96067.44;1718702;84;20152;-68
2021/03/25 05:36:31;;;;;;;;;;;;;;;-4.78;67.51;96068.95;1714679;84;20141;-65
2021/03/25 05:38:59;;;;;;;;;;;;;;;-4.72;67.58;96064.08;1704463;84;20171;-66
2021/03/25 05:41:36;;;;;;;;;;;;;;;-4.71;66.78;96063.67;1718186;83;20406;-67
2021/03/25 05:44:21;;;;;;;;;;;;;;;-4.61;67.98;96061.62;1687463;84;20175;-65
2021/03/25 05:46:55;;;;;;;;;;;;;;;-4.37;67.30;96059.69;1689621;85;20127;-65
2021/03/25 05:49:40;;;;;;;;;;;;;;;-3.97;66.39;96057.62;1689819;84;20142;-64
2021/03/25 05:52:22;;;;;;;;;;;;;;;-3.67;65.65;96063.65;1689589;84;20178;-64
2021/03/25 05:55:12;;;;;;;;;;;;;;;-3.39;64.17;96065.30;1699326;84;20421;-68
2021/03/25 05:58:06;;;;;;;;;;;;;;;-3.18;62.11;96073.03;1717064;83;20161;-67
2021/03/25 06:00:50;;;;;;;;;;;;;;;-2.96;62.53;96073.52;1741304;82;20158;-64
2021/03/25 06:03:18;;;;;;;;;;;;;;;-2.84;62.32;96073.14;1729336;82;20142;-64
2021/03/25 06:05:49;;;;;;;;;;;;;;;-2.68;61.43;96074.22;1711958;81;20167;-66
2021/03/25 06:08:46;;;;;;;;;;;;;;;-2.51;61.07;96071.42;1713934;84;20200;-68
2021/03/25 06:11:34;;;;;;;;;;;;;;;-2.38;59.64;96076.24;1727985;82;20173;-66
2021/03/25 06:14:11;;;;;;;;;;;;;;;-2.23;58.91;96074.66;1700649;84;20149;-68
2021/03/25 06:17:08;;;;;;;;;;;;;;;-2.06;59.24;96077.47;1700666;84;20248;-66
2021/03/25 06:19:47;;;;;;;;;;;;;;;-1.91;57.33;96087.92;1698454;84;20153;-66
2021/03/25 06:22:33;;;;;;;;;;;;;;;-1.75;56.82;96097.58;1700298;84;20141;-67
2021/03/25 06:25:21;;;;;;;;;;;;;;;-1.72;56.85;96092.05;1687921;84;20414;-68
2021/03/25 06:28:04;;;;;;;;;;;;;;;-1.62;57.44;96095.44;1688229;85;20141;-67
2021/03/25 06:30:34;;;;;;;;;;;;;;;-1.52;56.81;96091.94;1688351;84;20173;-66
2021/03/25 06:33:18;;;;;;;;;;;;;;;-1.50;56.45;96104.06;1688306;85;20161;-66
2021/03/25 06:35:50;;;;;;;;;;;;;;;-1.55;55.92;96107.78;1688203;85;20145;-66
2021/03/25 06:38:35;;;;;;;;;;;;;;;-1.48;55.75;96103.30;1687995;85;20196;-69
2021/03/25 06:41:15;;;;;;;;;;;;;;;-1.41;57.15;96107.87;1688341;85;20406;-69
2021/03/25 06:43:57;;;;;;;;;;;;;;;-1.30;58.28;96104.36;1822719;79;20335;-65
2021/03/25 06:46:40;;;;;;;;;;;;;;;-1.21;57.25;96103.39;1796436;80;20241;-65
2021/03/25 06:49:31;;;;;;;;;;;;;;;-0.99;56.75;96107.99;1796364;80;20146;-67
2021/03/25 06:52:24;;;;;;;;;;;;;;;-0.84;56.21;96097.27;1795736;80;20157;-66
2021/03/25 06:54:54;;;;;;;;;;;;;;;-0.72;55.11;96092.08;1796290;80;20157;-68
2021/03/25 06:57:22;;;;;;;;;;;;;;;-0.56;54.68;96094.73;1796207;80;20234;-69
2021/03/25 06:59:52;;;;;;;;;;;;;;;-0.39;55.32;96090.09;1806255;79;20402;-65
2021/03/25 07:02:32;;;;;;;;;;;;;;;-0.28;54.74;96095.61;1785991;80;20175;-63
2021/03/25 07:05:01;;;;;;;;;;;;;;;-0.13;53.40;96092.19;1787872;80;20148;-63
2021/03/25 07:07:36;;;;;;;;;;;;;;;0.05;52.89;96094.48;1789609;80;20131;-62
2021/03/25 07:10:04;;;;;;;;;;;;;;;0.12;51.58;96098.98;1789693;80;20140;-65
2021/03/25 07:12:40;;;;;;;;;;;;;;;0.26;51.98;96098.53;1789397;80;20424;-66
2021/03/25 07:15:11;;;;;;;;;;;;;;;0.36;52.02;96094.95;1789512;80;20120;-65
2021/03/25 07:17:41;;;;;;;;;;;;;;;0.57;51.85;96097.69;1787234;80;20155;-68
2021/03/25 07:20:21;;;;;;;;;;;;;;;0.69;51.39;96100.63;1789684;80;20120;-67
2021/03/25 07:23:12;;;;;;;;;;;;;;;0.81;50.93;96102.26;1800137;78;20506;-68
2021/03/25 07:25:43;;;;;;;;;;;;;;;0.98;51.36;96089.73;1814463;79;20199;-66
2021/03/25 07:28:14;;;;;;;;;;;;;;;1.22;50.01;96084.27;1791008;80;20132;-73
2021/03/25 07:30:47;;;;;;;;;;;;;;;1.38;49.94;96078.14;1790394;80;20428;-66
2021/03/25 07:33:18;;;;;;;;;;;;;;;1.51;49.78;96081.09;1791049;80;20135;-68
2021/03/25 07:35:49;;;;;;;;;;;;;;;1.64;49.37;96087.89;1791344;80;20139;-65
2021/03/25 07:38:26;;;;;;;;;;;;;;;1.84;49.71;96087.93;1791392;80;20127;-67
2021/03/25 07:41:14;;;;;;;;;;;;;;;2.01;48.57;96092.62;1791149;80;20130;-66
2021/03/25 07:43:57;;;;;;;;;;;;;;;2.11;46.96;96091.55;1780093;79;20171;-69
2021/03/25 07:46:36;;;;;;;;;;;;;;;2.25;47.56;96090.98;1777485;81;20515;-68
2021/03/25 07:49:14;;;;;;;;;;;;;;;2.41;46.18;96089.15;1777795;81;20128;-67
2021/03/25 07:52:03;;;;;;;;;;;;;;;2.59;45.35;96088.64;1777798;81;20156;-66
2021/03/25 07:54:37;;;;;;;;;;;;;;;2.73;42.91;96083.29;1777317;81;20405;-67
2021/03/25 07:57:14;;;;;;;;;;;;;;;2.90;43.95;96082.31;1776480;80;20429;-67
2021/03/25 07:59:45;;;;;;;;;;;;;;;2.93;40.43;96078.45;1763855;80;20151;-67
2021/03/25 08:02:26;;;;;;;;;;;;;;;2.94;37.53;96080.63;1781883;80;20178;-65
2021/03/25 08:04:55;;;;;;;;;;;;;;;2.99;38.25;96075.95;1782087;81;20166;-67
2021/03/25 08:07:24;;;;;;;;;;;;;;;3.08;38.00;96079.60;1782006;81;20173;-67
2021/03/25 08:09:57;;;;;;;;;;;;;;;3.11;38.35;96071.39;1781859;80;20167;-67
2021/03/25 08:12:30;;;;;;;;;;;;;;;3.23;37.11;96078.13;1781932;80;20455;-67
2021/03/25 08:15:07;;;;;;;;;;;;;;;3.33;38.60;96077.88;1777064;79;20386;-67
2021/03/25 08:17:44;;;;;;;;;;;;;;;3.47;39.24;96081.56;1775033;80;20417;-65
2021/03/25 08:20:26;;;;;;;;;;;;;;;3.55;36.72;96074.30;1777214;81;20145;-67
2021/03/25 08:23:15;;;;;;;;;;;;;;;3.50;36.25;96079.44;1776995;80;20156;-66
2021/03/25 08:25:44;;;;;;;;;;;;;;;3.59;37.66;96074.38;1776987;81;20184;-67
2021/03/25 08:28:32;;;;;;;;;;;;;;;3.61;37.50;96071.80;1776631;81;20132;-69
2021/03/25 08:31:06;;;;;;;;;;;;;;;3.71;36.77;96071.09;1777055;81;20203;-64
2021/03/25 08:33:53;;;;;;;;;;;;;;;3.82;37.33;96067.33;1777268;81;20147;-64
2021/03/25 08:36:33;;;;;;;;;;;;;;;3.93;36.73;96064.88;1776988;81;20124;-65
2021/03/25 08:39:07;;;;;;;;;;;;;;;3.96;36.39;96064.95;1776824;80;20513;-68
2021/03/25 08:41:50;;;;;;;;;;;;;;;4.16;35.49;96056.95;1777337;81;20159;-65
2021/03/25 08:44:37;;;;;;;;;;;;;;;4.27;35.18;96061.01;1750022;81;20128;-67
2021/03/25 08:47:13;;;;;;;;;;;;;;;4.31;33.75;96057.16;1781178;81;20437;-64
2021/03/25 08:49:47;;;;;;;;;;;;;;;4.42;34.85;96059.90;1782382;81;20397;-66
2021/03/25 08:52:16;;;;;;;;;;;;;;;4.54;37.54;96063.11;1779664;81;20144;-64
2021/03/25 08:54:47;;;;;;;;;;;;;;;4.63;34.27;96053.17;1782688;81;20155;-69
2021/03/25 08:57:20;;;;;;;;;;;;;;;4.66;33.61;96055.81;1782675;80;20143;-65
2021/03/25 09:00:00;;;;;;;;;;;;;;;4.75;33.91;96056.80;1774905;80;20152;-67
2021/03/25 09:02:34;;;;;;;;;;;;;;;4.81;33.58;96052.06;1755405;82;20132;-64
2021/03/25 09:05:20;;;;;;;;;;;;;;;4.93;34.06;96049.59;1759304;81;20414;-65
2021/03/25 09:07:49;;;;;;;;;;;;;;;5.02;33.79;96055.80;1759455;81;20119;-66
2021/03/25 09:10:26;;;;;;;;;;;;;;;5.04;32.22;96044.90;1759194;82;20132;-66
2021/03/25 09:12:54;;;;;;;;;;;;;;;5.04;32.94;96040.57;1759371;81;20140;-66
2021/03/25 09:15:22;;;;;;;;;;;;;;;5.07;31.06;96037.11;1759247;81;20429;-66
2021/03/25 09:17:55;;;;;;;;;;;;;;;5.05;32.51;96033.16;1759357;81;20120;-71
2021/03/25 09:20:31;;;;;;;;;;;;;;;5.13;32.03;96029.30;1759436;81;20169;-69
2021/03/25 09:23:00;;;;;;;;;;;;;;;5.16;30.79;96035.43;1759390;81;20141;-65
2021/03/25 09:25:32;;;;;;;;;;;;;;;5.16;31.70;96028.89;1759203;82;20410;-66
2021/03/25 09:28:05;;;;;;;;;;;;;;;5.26;31.83;96027.67;1758837;82;20123;-68
2021/03/25 09:30:36;;;;;;;;;;;;;;;5.45;32.34;96024.36;1759355;81;20548;-68
2021/03/25 09:33:42;;;;;;;;;;;;;;;5.70;34.61;96027.17;1758974;82;20124;-69
2021/03/25 09:36:23;;;;;;;;;;;;;;;5.93;32.11;96019.03;1759251;81;20421;-69
2021/03/25 09:38:59;;;;;;;;;;;;;;;5.97;30.06;96033.94;1759295;82;20131;-69
2021/03/25 09:41:30;;;;;;;;;;;;;;;5.69;30.85;96026.27;1759398;82;20121;-70
2021/03/25 09:44:20;;;;;;;;;;;;;;;5.78;30.86;96023.73;1753616;81;20124;-73
2021/03/25 09:46:57;;;;;;;;;;;;;;;5.78;29.37;96024.17;1751242;82;20227;-68
2021/03/25 09:49:28;;;;;;;;;;;;;;;5.88;30.69;96027.30;1751085;82;20144;-75
2021/03/25 09:52:11;;;;;;;;;;;;;;;5.90;30.39;96024.70;1751043;82;20409;-72
2021/03/25 09:54:55;;;;;;;;;;;;;;;5.98;29.49;96024.33;1751436;82;20223;-70
2021/03/25 09:57:33;;;;;;;;;;;;;;;5.93;30.05;96022.09;1749069;82;20183;-66
2021/03/25 10:00:20;;;;;;;;;;;;;;;6.09;30.80;96020.02;1761461;81;20152;-63
2021/03/25 10:02:52;;;;;;;;;;;;;;;6.28;30.88;96002.66;1775987;81;20227;-64
2021/03/25 10:05:34;;;;;;;;;;;;;;;6.64;32.48;96005.84;1739182;83;20135;-64
2021/03/25 10:08:05;;;;;;;;;;;;;;;6.74;29.58;95998.89;1721154;82;20138;-64
2021/03/25 10:11:00;;;;;;;;;;;;;;;6.82;29.94;95992.35;1723577;83;20172;-63
2021/03/25 10:13:40;;;;;;;;;;;;;;;6.94;29.52;95988.00;1691707;83;20128;-64
2021/03/25 10:16:30;;;;;;;;;;;;;;;7.06;29.60;95983.22;1723420;83;20425;-64
2021/03/25 10:18:59;;;;;;;;;;;;;;;7.23;30.89;95984.97;1723423;83;20141;-64
2021/03/25 10:21:54;;;;;;;;;;;;;;;7.45;31.14;95974.91;1723676;83;20144;-64
2021/03/25 10:24:38;;;;;;;;;;;;;;;7.41;29.20;95978.84;1723599;83;20132;-64
2021/03/25 10:27:27;;;;;;;;;;;;;;;7.47;29.11;95974.92;1723659;83;20406;-63
2021/03/25 10:29:54;;;;;;;;;;;;;;;7.71;31.31;95971.39;1705175;83;20429;-64
2021/03/25 10:32:27;;;;;;;;;;;;;;;7.76;28.89;95967.90;1723076;83;20141;-64
2021/03/25 10:35:00;;;;;;;;;;;;;;;7.57;29.90;95970.10;1723486;83;20136;-64
2021/03/25 10:37:41;;;;;;;;;;;;;;;7.72;29.81;95974.02;1723719;83;20125;-64
2021/03/25 10:40:24;;;;;;;;;;;;;;;7.66;29.30;95966.17;1723133;83;20418;-64
2021/03/25 10:43:03;;;;;;;;;;;;;;;7.73;28.54;95970.95;1723701;83;20161;-64
2021/03/25 10:45:46;;;;;;;;;;;;;;;7.82;28.75;95963.06;1736154;83;20402;-63
2021/03/25 10:48:34;;;;;;;;;;;;;;;7.86;27.33;95958.25;1693653;83;20148;-64
2021/03/25 10:51:14;;;;;;;;;;;;;;;7.87;28.13;95957.36;1726253;83;20144;-64
2021/03/25 10:53:51;;;;;;;;;;;;;;;7.98;29.63;95952.07;1726257;83;20144;-64
2021/03/25 10:56:23;;;;;;;;;;;;;;;8.01;28.69;95954.27;1735819;83;20135;-64
2021/03/25 10:59:06;;;;;;;;;;;;;;;7.88;27.19;95960.41;1726142;83;20143;-64
2021/03/25 11:01:35;;;;;;;;;;;;;;;8.15;29.24;95945.02;1673460;86;20191;-64
2021/03/25 11:04:21;;;;;;;;;;;;;;;8.17;26.13;95943.70;1673125;86;20283;-64
2021/03/25 11:06:50;;;;;;;;;;;;;;;8.32;27.09;95948.91;1673143;86;20513;-64
2021/03/25 11:09:21;;;;;;;;;;;;;;;8.52;25.97;95942.72;1673348;86;20430;-64
2021/03/25 11:11:54;;;;;;;;;;;;;;;8.90;29.42;95945.13;1678522;86;20156;-64
2021/03/25 11:14:36;;;;;;;;;;;;;;;9.38;24.58;95941.69;1697265;85;20184;-64
2021/03/25 11:17:22;;;;;;;;;;;;;;;9.65;25.58;95939.27;1697173;85;20164;-64
2021/03/25 11:19:53;;;;;;;;;;;;;;;9.88;24.03;95931.13;1697439;85;20136;-64
2021/03/25 11:22:22;;;;;;;;;;;;;;;10.00;24.80;95932.73;1697201;85;20144;-64
2021/03/25 11:24:51;;;;;;;;;;;;;;;10.52;26.27;95923.37;1697257;84;20149;-64
2021/03/25 11:27:21;;;;;;;;;;;;;;;10.82;25.78;95918.12;1697377;85;20407;-64
2021/03/25 11:29:51;;;;;;;;;;;;;;;11.17;22.65;95918.05;1692794;85;20145;-64
2021/03/25 11:32:23;;;;;;;;;;;;;;;11.51;22.38;95915.70;1696074;85;20140;-64
2021/03/25 11:34:54;;;;;;;;;;;;;;;11.80;21.74;95909.91;1697552;85;20133;-64
2021/03/25 11:37:31;;;;;;;;;;;;;;;11.48;22.39;95925.01;1697523;85;20172;-65
2021/03/25 11:40:13;;;;;;;;;;;;;;;11.89;22.99;95912.44;1697502;85;20140;-64
2021/03/25 11:42:42;;;;;;;;;;;;;;;12.62;22.70;95912.30;1697513;85;20124;-64
2021/03/25 11:45:32;;;;;;;;;;;;;;;13.00;19.74;95910.11;1687876;85;20418;-64
2021/03/25 11:48:00;;;;;;;;;;;;;;;13.23;19.14;95912.25;1688001;85;20144;-64
2021/03/25 11:50:32;;;;;;;;;;;;;;;13.21;20.30;95910.08;1687986;85;20129;-64
2021/03/25 11:53:02;;;;;;;;;;;;;;;13.26;19.83;95905.54;1687586;85;20129;-64
2021/03/25 11:55:36;;;;;;;;;;;;;;;13.58;19.23;95903.89;1688393;85;20137;-64
2021/03/25 11:58:18;;;;;;;;;;;;;;;13.76;19.28;95902.58;1687861;85;20157;-64
2021/03/25 12:01:21;;;;;;;;;;;;;;;13.95;18.60;95901.61;1709136;84;20229;-64
2021/03/25 12:03:55;;;;;;;;;;;;;;;13.93;17.83;95892.36;1716826;84;20147;-64
2021/03/25 12:06:25;;;;;;;;;;;;;;;13.51;21.02;95897.89;1716767;84;20257;-64
2021/03/25 12:09:07;;;;;;;;;;;;;;;13.94;20.50;95887.95;1716800;84;20130;-64
2021/03/25 12:11:39;;;;;;;;;;;;;;;14.44;18.39;95878.56;1691968;84;20181;-64
2021/03/25 12:14:08;;;;;;;;;;;;;;;14.16;18.79;95879.81;1716365;84;20420;-64
2021/03/25 12:16:37;;;;;;;;;;;;;;;13.87;19.77;95883.72;1714760;83;20138;-64
2021/03/25 12:19:08;;;;;;;;;;;;;;;14.15;18.37;95877.19;1688247;84;20138;-64
2021/03/25 12:21:37;;;;;;;;;;;;;;;14.78;19.00;95873.59;1716574;84;20242;-64
2021/03/25 12:24:06;;;;;;;;;;;;;;;14.81;18.08;95871.30;1716541;84;20142;-64
2021/03/25 12:26:34;;;;;;;;;;;;;;;14.37;17.65;95870.36;1716665;84;20226;-64
2021/03/25 12:29:04;;;;;;;;;;;;;;;14.35;17.42;95874.84;1716529;84;20507;-64
2021/03/25 12:31:38;;;;;;;;;;;;;;;14.19;17.01;95876.20;1716952;84;20229;-64
2021/03/25 12:34:08;;;;;;;;;;;;;;;14.45;17.08;95876.30;1712810;84;20138;-64
2021/03/25 12:36:36;;;;;;;;;;;;;;;14.12;18.97;95870.19;1716543;84;20225;-64
2021/03/25 12:39:06;;;;;;;;;;;;;;;14.73;18.44;95867.55;1716500;84;20246;-64
2021/03/25 12:41:45;;;;;;;;;;;;;;;14.81;17.82;95867.31;1712929;83;20155;-64
2021/03/25 12:44:15;;;;;;;;;;;;;;;15.10;16.86;95869.08;1713030;81;20472;-64
2021/03/25 12:46:44;;;;;;;;;;;;;;;14.97;17.81;95862.38;1707095;84;20143;-64
2021/03/25 12:49:11;;;;;;;;;;;;;;;15.13;17.79;95868.50;1710103;84;20135;-64
2021/03/25 12:51:39;;;;;;;;;;;;;;;15.47;15.96;95855.45;1710257;84;20433;-64
2021/03/25 12:54:06;;;;;;;;;;;;;;;15.48;18.51;95861.63;1710477;84;20150;-64
2021/03/25 12:56:35;;;;;;;;;;;;;;;15.73;15.34;95859.91;1710402;84;20155;-64
2021/03/25 12:59:05;;;;;;;;;;;;;;;15.45;16.96;95861.73;1710294;83;20151;-64
2021/03/25 13:01:33;;;;;;;;;;;;;;;15.39;15.50;95857.47;1710315;83;20198;-64
2021/03/25 13:04:03;;;;;;;;;;;;;;;15.61;15.48;95867.41;1710169;84;20409;-64
2021/03/25 13:06:30;;;;;;;;;;;;;;;15.41;16.21;95862.75;1710296;84;20163;-64
2021/03/25 13:08:58;;;;;;;;;;;;;;;15.01;15.36;95863.58;1710137;83;20147;-64
2021/03/25 13:11:28;;;;;;;;;;;;;;;14.55;16.11;95874.29;1710286;84;20416;-64
2021/03/25 13:13:59;;;;;;;;;;;;;;;14.89;15.98;95869.27;1709801;84;20404;-64
2021/03/25 13:16:27;;;;;;;;;;;;;;;15.22;16.55;95872.67;1710071;83;20424;-64
2021/03/25 13:18:55;;;;;;;;;;;;;;;15.11;16.81;95872.13;1710232;83;20412;-64
2021/03/25 13:21:22;;;;;;;;;;;;;;;15.49;15.81;95873.53;1710116;84;20143;-64
2021/03/25 13:23:50;;;;;;;;;;;;;;;15.83;16.15;95871.10;1710266;84;20123;-64
2021/03/25 13:26:17;;;;;;;;;;;;;;;15.17;15.50;95880.36;1710211;84;20164;-64
2021/03/25 13:28:45;;;;;;;;;;;;;;;15.20;15.81;95882.94;1710184;84;20143;-64
2021/03/25 13:31:14;;;;;;;;;;;;;;;14.86;14.94;95883.52;1710343;84;20468;-64